sensor_id;sensor_type;location;lat;lon;timestamp;P1;durP1;ratioP1;P2;durP2;ratioP2
51800;SDS011;37855;53.204;6.568;2023-06-19T00:01:23;9.15;;;6.43;;
51800;SDS011;37855;53.204;6.568;2023-06-19T00:03:49;8.77;;;6.13;;
51800;SDS011;37855;53.204;6.568;2023-06-19T00:06:14;12.38;;;6.55;;
51800;SDS011;37855;53.204;6.568;2023-06-19T00:08:40;9.60;;;5.50;;
51800;SDS011;37855;53.204;6.568;2023-06-19T00:11:08;9.80;;;6.00;;
51800;SDS011;37855;53.204;6.568;2023-06-19T00:13:34;8.47;;;6.30;;
51800;SDS011;37855;53.204;6.568;2023-06-19T00:16:00;7.88;;;6.18;;
51800;SDS011;37855;53.204;6.568;2023-06-19T00:18:29;8.90;;;6.20;;
51800;SDS011;37855;53.204;6.568;2023-06-19T00:20:55;9.68;;;6.30;;
51800;SDS011;37855;53.204;6.568;2023-06-19T00:23:24;10.07;;;6.78;;
51800;SDS011;37855;53.204;6.568;2023-06-19T00:25:50;9.70;;;6.07;;
51800;SDS011;37855;53.204;6.568;2023-06-19T00:28:15;10.45;;;6.30;;
51800;SDS011;37855;53.204;6.568;2023-06-19T00:30:44;9.50;;;6.38;;
51800;SDS011;37855;53.204;6.568;2023-06-19T00:33:10;11.27;;;6.43;;
51800;SDS011;37855;53.204;6.568;2023-06-19T00:35:36;10.18;;;6.63;;
51800;SDS011;37855;53.204;6.568;2023-06-19T00:38:04;8.20;;;6.07;;
51800;SDS011;37855;53.204;6.568;2023-06-19T00:40:30;12.10;;;6.38;;
51800;SDS011;37855;53.204;6.568;2023-06-19T00:42:57;9.55;;;5.95;;
51800;SDS011;37855;53.204;6.568;2023-06-19T00:45:24;9.55;;;6.00;;
51800;SDS011;37855;53.204;6.568;2023-06-19T00:47:51;10.40;;;6.50;;
51800;SDS011;37855;53.204;6.568;2023-06-19T00:50:17;8.60;;;6.25;;
51800;SDS011;37855;53.204;6.568;2023-06-19T00:52:43;10.05;;;6.20;;
51800;SDS011;37855;53.204;6.568;2023-06-19T00:55:09;10.10;;;6.25;;
51800;SDS011;37855;53.204;6.568;2023-06-19T00:57:36;9.50;;;6.00;;
51800;SDS011;37855;53.204;6.568;2023-06-19T01:00:04;11.98;;;5.97;;
51800;SDS011;37855;53.204;6.568;2023-06-19T01:02:33;9.80;;;6.60;;
51800;SDS011;37855;53.204;6.568;2023-06-19T01:05:00;9.45;;;6.30;;
51800;SDS011;37855;53.204;6.568;2023-06-19T01:07:31;11.20;;;6.45;;
51800;SDS011;37855;53.204;6.568;2023-06-19T01:10:11;9.20;;;5.67;;
51800;SDS011;37855;53.204;6.568;2023-06-19T01:13:00;10.35;;;6.00;;
51800;SDS011;37855;53.204;6.568;2023-06-19T01:15:26;9.32;;;6.45;;
51800;SDS011;37855;53.204;6.568;2023-06-19T01:17:55;8.68;;;5.88;;
51800;SDS011;37855;53.204;6.568;2023-06-19T01:20:23;9.07;;;6.10;;
51800;SDS011;37855;53.204;6.568;2023-06-19T01:22:52;8.05;;;5.60;;
51800;SDS011;37855;53.204;6.568;2023-06-19T01:25:22;9.07;;;5.70;;
51800;SDS011;37855;53.204;6.568;2023-06-19T01:27:50;10.35;;;6.40;;
51800;SDS011;37855;53.204;6.568;2023-06-19T01:30:16;8.23;;;6.07;;
51800;SDS011;37855;53.204;6.568;2023-06-19T01:35:11;12.13;;;5.75;;
51800;SDS011;37855;53.204;6.568;2023-06-19T01:37:38;10.80;;;5.90;;
51800;SDS011;37855;53.204;6.568;2023-06-19T01:40:07;8.55;;;5.63;;
51800;SDS011;37855;53.204;6.568;2023-06-19T01:42:35;8.55;;;5.90;;
51800;SDS011;37855;53.204;6.568;2023-06-19T01:45:03;8.57;;;5.90;;
51800;SDS011;37855;53.204;6.568;2023-06-19T01:47:30;11.88;;;6.30;;
51800;SDS011;37855;53.204;6.568;2023-06-19T01:49:56;10.18;;;6.30;;
51800;SDS011;37855;53.204;6.568;2023-06-19T01:52:22;10.00;;;5.87;;
51800;SDS011;37855;53.204;6.568;2023-06-19T01:54:49;8.48;;;5.60;;
51800;SDS011;37855;53.204;6.568;2023-06-19T01:57:15;10.75;;;5.72;;
51800;SDS011;37855;53.204;6.568;2023-06-19T01:59:43;9.13;;;5.40;;
51800;SDS011;37855;53.204;6.568;2023-06-19T02:02:09;7.93;;;5.60;;
51800;SDS011;37855;53.204;6.568;2023-06-19T02:04:36;8.13;;;6.23;;
51800;SDS011;37855;53.204;6.568;2023-06-19T02:07:01;8.98;;;5.82;;
51800;SDS011;37855;53.204;6.568;2023-06-19T02:09:27;10.52;;;6.35;;
51800;SDS011;37855;53.204;6.568;2023-06-19T02:11:53;10.03;;;6.10;;
51800;SDS011;37855;53.204;6.568;2023-06-19T02:14:19;11.07;;;6.38;;
51800;SDS011;37855;53.204;6.568;2023-06-19T02:16:46;37.53;;;7.07;;
51800;SDS011;37855;53.204;6.568;2023-06-19T02:19:11;8.98;;;5.75;;
51800;SDS011;37855;53.204;6.568;2023-06-19T02:21:38;8.63;;;6.10;;
51800;SDS011;37855;53.204;6.568;2023-06-19T02:24:05;11.60;;;6.65;;
51800;SDS011;37855;53.204;6.568;2023-06-19T02:26:31;8.97;;;6.47;;
51800;SDS011;37855;53.204;6.568;2023-06-19T02:28:57;9.25;;;6.07;;
51800;SDS011;37855;53.204;6.568;2023-06-19T02:31:23;9.93;;;6.03;;
51800;SDS011;37855;53.204;6.568;2023-06-19T02:33:49;9.80;;;6.22;;
51800;SDS011;37855;53.204;6.568;2023-06-19T02:36:19;8.77;;;6.00;;
51800;SDS011;37855;53.204;6.568;2023-06-19T02:38:45;8.43;;;6.20;;
51800;SDS011;37855;53.204;6.568;2023-06-19T02:41:12;8.65;;;5.80;;
51800;SDS011;37855;53.204;6.568;2023-06-19T02:43:38;9.27;;;6.10;;
51800;SDS011;37855;53.204;6.568;2023-06-19T02:46:05;9.35;;;6.00;;
51800;SDS011;37855;53.204;6.568;2023-06-19T02:48:31;8.87;;;6.00;;
51800;SDS011;37855;53.204;6.568;2023-06-19T02:50:57;8.18;;;5.85;;
51800;SDS011;37855;53.204;6.568;2023-06-19T02:53:22;9.30;;;6.40;;
51800;SDS011;37855;53.204;6.568;2023-06-19T02:55:48;9.50;;;5.85;;
51800;SDS011;37855;53.204;6.568;2023-06-19T02:58:14;10.20;;;6.17;;
51800;SDS011;37855;53.204;6.568;2023-06-19T03:00:39;10.07;;;6.22;;
51800;SDS011;37855;53.204;6.568;2023-06-19T03:03:05;8.57;;;6.20;;
51800;SDS011;37855;53.204;6.568;2023-06-19T03:05:31;9.00;;;5.97;;
51800;SDS011;37855;53.204;6.568;2023-06-19T03:07:59;9.85;;;5.93;;
51800;SDS011;37855;53.204;6.568;2023-06-19T03:10:25;9.20;;;6.00;;
51800;SDS011;37855;53.204;6.568;2023-06-19T03:12:50;10.55;;;6.38;;
51800;SDS011;37855;53.204;6.568;2023-06-19T03:15:16;12.00;;;6.53;;
51800;SDS011;37855;53.204;6.568;2023-06-19T03:17:42;10.23;;;6.00;;
51800;SDS011;37855;53.204;6.568;2023-06-19T03:20:07;9.97;;;6.27;;
51800;SDS011;37855;53.204;6.568;2023-06-19T03:22:37;9.55;;;6.38;;
51800;SDS011;37855;53.204;6.568;2023-06-19T03:25:12;10.40;;;6.20;;
51800;SDS011;37855;53.204;6.568;2023-06-19T03:27:40;9.85;;;6.47;;
51800;SDS011;37855;53.204;6.568;2023-06-19T03:30:05;9.43;;;6.00;;
51800;SDS011;37855;53.204;6.568;2023-06-19T03:32:33;10.60;;;6.15;;
51800;SDS011;37855;53.204;6.568;2023-06-19T03:34:59;9.70;;;6.65;;
51800;SDS011;37855;53.204;6.568;2023-06-19T03:37:25;9.13;;;6.50;;
51800;SDS011;37855;53.204;6.568;2023-06-19T03:39:50;11.68;;;6.30;;
51800;SDS011;37855;53.204;6.568;2023-06-19T03:42:16;10.90;;;6.47;;
51800;SDS011;37855;53.204;6.568;2023-06-19T03:44:42;10.85;;;6.85;;
51800;SDS011;37855;53.204;6.568;2023-06-19T03:47:07;9.23;;;6.33;;
51800;SDS011;37855;53.204;6.568;2023-06-19T03:49:36;9.23;;;6.03;;
51800;SDS011;37855;53.204;6.568;2023-06-19T03:52:02;8.73;;;6.15;;
51800;SDS011;37855;53.204;6.568;2023-06-19T03:54:28;10.20;;;6.63;;
51800;SDS011;37855;53.204;6.568;2023-06-19T03:56:53;10.00;;;6.65;;
51800;SDS011;37855;53.204;6.568;2023-06-19T03:59:19;10.50;;;6.33;;
51800;SDS011;37855;53.204;6.568;2023-06-19T04:01:44;9.75;;;6.45;;
51800;SDS011;37855;53.204;6.568;2023-06-19T04:04:10;10.00;;;6.40;;
51800;SDS011;37855;53.204;6.568;2023-06-19T04:06:36;9.70;;;6.63;;
51800;SDS011;37855;53.204;6.568;2023-06-19T04:09:01;8.93;;;5.97;;
51800;SDS011;37855;53.204;6.568;2023-06-19T04:11:27;9.35;;;6.00;;
51800;SDS011;37855;53.204;6.568;2023-06-19T04:13:53;10.13;;;6.23;;
51800;SDS011;37855;53.204;6.568;2023-06-19T04:16:19;10.07;;;6.30;;
51800;SDS011;37855;53.204;6.568;2023-06-19T04:18:44;9.07;;;6.20;;
51800;SDS011;37855;53.204;6.568;2023-06-19T04:21:13;12.80;;;5.75;;
51800;SDS011;37855;53.204;6.568;2023-06-19T04:23:40;9.43;;;6.13;;
51800;SDS011;37855;53.204;6.568;2023-06-19T04:26:06;10.35;;;5.97;;
51800;SDS011;37855;53.204;6.568;2023-06-19T04:28:31;9.48;;;6.13;;
51800;SDS011;37855;53.204;6.568;2023-06-19T04:31:00;10.23;;;5.87;;
51800;SDS011;37855;53.204;6.568;2023-06-19T04:33:27;10.05;;;5.93;;
51800;SDS011;37855;53.204;6.568;2023-06-19T04:35:53;10.98;;;6.10;;
51800;SDS011;37855;53.204;6.568;2023-06-19T04:38:19;10.73;;;6.17;;
51800;SDS011;37855;53.204;6.568;2023-06-19T04:40:48;17.92;;;6.22;;
51800;SDS011;37855;53.204;6.568;2023-06-19T04:43:15;10.68;;;5.72;;
51800;SDS011;37855;53.204;6.568;2023-06-19T04:45:43;9.33;;;5.60;;
51800;SDS011;37855;53.204;6.568;2023-06-19T04:48:09;8.90;;;5.47;;
51800;SDS011;37855;53.204;6.568;2023-06-19T04:50:35;13.27;;;5.28;;
51800;SDS011;37855;53.204;6.568;2023-06-19T04:53:01;19.60;;;5.30;;
51800;SDS011;37855;53.204;6.568;2023-06-19T04:55:26;12.68;;;4.82;;
51800;SDS011;37855;53.204;6.568;2023-06-19T04:57:52;25.37;;;5.20;;
51800;SDS011;37855;53.204;6.568;2023-06-19T05:00:20;11.52;;;5.25;;
51800;SDS011;37855;53.204;6.568;2023-06-19T05:02:48;15.40;;;5.03;;
51800;SDS011;37855;53.204;6.568;2023-06-19T05:05:14;15.55;;;4.32;;
51800;SDS011;37855;53.204;6.568;2023-06-19T05:07:40;19.30;;;5.95;;
51800;SDS011;37855;53.204;6.568;2023-06-19T05:10:06;17.20;;;4.97;;
51800;SDS011;37855;53.204;6.568;2023-06-19T05:12:33;25.37;;;4.77;;
51800;SDS011;37855;53.204;6.568;2023-06-19T05:15:01;19.58;;;5.47;;
51800;SDS011;37855;53.204;6.568;2023-06-19T05:17:27;15.20;;;4.93;;
51800;SDS011;37855;53.204;6.568;2023-06-19T05:19:54;16.30;;;4.13;;
51800;SDS011;37855;53.204;6.568;2023-06-19T05:22:23;10.23;;;4.38;;
51800;SDS011;37855;53.204;6.568;2023-06-19T05:24:49;12.30;;;5.10;;
51800;SDS011;37855;53.204;6.568;2023-06-19T05:27:14;12.45;;;4.88;;
51800;SDS011;37855;53.204;6.568;2023-06-19T05:29:40;15.57;;;5.17;;
51800;SDS011;37855;53.204;6.568;2023-06-19T05:32:09;18.67;;;4.60;;
51800;SDS011;37855;53.204;6.568;2023-06-19T05:34:34;11.77;;;4.32;;
51800;SDS011;37855;53.204;6.568;2023-06-19T05:37:00;13.03;;;4.00;;
51800;SDS011;37855;53.204;6.568;2023-06-19T05:39:28;16.50;;;4.28;;
51800;SDS011;37855;53.204;6.568;2023-06-19T05:41:54;15.02;;;4.63;;
51800;SDS011;37855;53.204;6.568;2023-06-19T05:44:20;11.00;;;4.30;;
51800;SDS011;37855;53.204;6.568;2023-06-19T05:46:47;17.27;;;4.50;;
51800;SDS011;37855;53.204;6.568;2023-06-19T05:49:16;8.05;;;4.22;;
51800;SDS011;37855;53.204;6.568;2023-06-19T05:51:41;14.47;;;5.00;;
51800;SDS011;37855;53.204;6.568;2023-06-19T05:54:08;16.83;;;4.65;;
51800;SDS011;37855;53.204;6.568;2023-06-19T05:56:37;13.93;;;5.05;;
51800;SDS011;37855;53.204;6.568;2023-06-19T05:59:03;16.27;;;4.95;;
51800;SDS011;37855;53.204;6.568;2023-06-19T06:01:29;8.67;;;4.90;;
51800;SDS011;37855;53.204;6.568;2023-06-19T06:03:55;28.27;;;5.35;;
51800;SDS011;37855;53.204;6.568;2023-06-19T06:06:24;18.15;;;5.07;;
51800;SDS011;37855;53.204;6.568;2023-06-19T06:08:50;10.53;;;5.03;;
51800;SDS011;37855;53.204;6.568;2023-06-19T06:11:16;13.35;;;4.68;;
51800;SDS011;37855;53.204;6.568;2023-06-19T06:13:42;11.15;;;5.07;;
51800;SDS011;37855;53.204;6.568;2023-06-19T06:16:08;11.93;;;4.43;;
51800;SDS011;37855;53.204;6.568;2023-06-19T06:18:34;12.57;;;5.70;;
51800;SDS011;37855;53.204;6.568;2023-06-19T06:21:01;9.30;;;4.57;;
51800;SDS011;37855;53.204;6.568;2023-06-19T06:23:27;14.88;;;5.25;;
51800;SDS011;37855;53.204;6.568;2023-06-19T06:25:53;15.33;;;5.70;;
51800;SDS011;37855;53.204;6.568;2023-06-19T06:28:26;11.15;;;5.25;;
51800;SDS011;37855;53.204;6.568;2023-06-19T06:30:52;13.90;;;5.57;;
51800;SDS011;37855;53.204;6.568;2023-06-19T06:33:17;8.47;;;5.23;;
51800;SDS011;37855;53.204;6.568;2023-06-19T06:35:46;9.50;;;5.72;;
51800;SDS011;37855;53.204;6.568;2023-06-19T06:38:13;10.53;;;6.40;;
51800;SDS011;37855;53.204;6.568;2023-06-19T06:40:39;18.50;;;7.10;;
51800;SDS011;37855;53.204;6.568;2023-06-19T06:43:06;17.92;;;6.90;;
51800;SDS011;37855;53.204;6.568;2023-06-19T06:45:32;14.15;;;6.28;;
51800;SDS011;37855;53.204;6.568;2023-06-19T06:47:58;15.97;;;5.80;;
51800;SDS011;37855;53.204;6.568;2023-06-19T06:50:23;11.15;;;5.70;;
51800;SDS011;37855;53.204;6.568;2023-06-19T06:55:24;10.43;;;5.05;;
51800;SDS011;37855;53.204;6.568;2023-06-19T06:57:53;13.00;;;4.82;;
51800;SDS011;37855;53.204;6.568;2023-06-19T07:00:20;8.00;;;4.60;;
51800;SDS011;37855;53.204;6.568;2023-06-19T07:02:46;8.30;;;4.20;;
51800;SDS011;37855;53.204;6.568;2023-06-19T07:05:17;8.93;;;4.47;;
51800;SDS011;37855;53.204;6.568;2023-06-19T07:07:45;10.23;;;4.93;;
51800;SDS011;37855;53.204;6.568;2023-06-19T07:10:11;13.13;;;6.17;;
51800;SDS011;37855;53.204;6.568;2023-06-19T07:12:44;13.65;;;6.40;;
51800;SDS011;37855;53.204;6.568;2023-06-19T07:15:10;11.10;;;6.05;;
51800;SDS011;37855;53.204;6.568;2023-06-19T07:17:36;11.65;;;5.32;;
51800;SDS011;37855;53.204;6.568;2023-06-19T07:20:02;9.80;;;5.10;;
51800;SDS011;37855;53.204;6.568;2023-06-19T07:22:29;12.50;;;6.55;;
51800;SDS011;37855;53.204;6.568;2023-06-19T07:24:55;12.27;;;6.33;;
51800;SDS011;37855;53.204;6.568;2023-06-19T07:27:20;11.77;;;7.07;;
51800;SDS011;37855;53.204;6.568;2023-06-19T07:29:47;11.02;;;5.95;;
51800;SDS011;37855;53.204;6.568;2023-06-19T07:32:12;10.83;;;6.00;;
51800;SDS011;37855;53.204;6.568;2023-06-19T07:34:38;10.05;;;6.85;;
51800;SDS011;37855;53.204;6.568;2023-06-19T07:37:04;13.70;;;8.27;;
51800;SDS011;37855;53.204;6.568;2023-06-19T07:39:30;15.23;;;8.67;;
51800;SDS011;37855;53.204;6.568;2023-06-19T07:41:56;13.35;;;8.65;;
51800;SDS011;37855;53.204;6.568;2023-06-19T07:44:21;13.90;;;9.07;;
51800;SDS011;37855;53.204;6.568;2023-06-19T07:46:50;17.25;;;10.63;;
51800;SDS011;37855;53.204;6.568;2023-06-19T07:49:16;20.73;;;9.65;;
51800;SDS011;37855;53.204;6.568;2023-06-19T07:51:43;14.47;;;9.00;;
51800;SDS011;37855;53.204;6.568;2023-06-19T07:54:09;15.50;;;8.60;;
51800;SDS011;37855;53.204;6.568;2023-06-19T07:56:35;17.02;;;8.93;;
51800;SDS011;37855;53.204;6.568;2023-06-19T07:59:01;12.83;;;7.93;;
51800;SDS011;37855;53.204;6.568;2023-06-19T08:01:28;19.10;;;9.45;;
51800;SDS011;37855;53.204;6.568;2023-06-19T08:03:55;14.38;;;8.93;;
51800;SDS011;37855;53.204;6.568;2023-06-19T08:06:20;18.23;;;9.03;;
51800;SDS011;37855;53.204;6.568;2023-06-19T08:08:50;18.92;;;9.02;;
51800;SDS011;37855;53.204;6.568;2023-06-19T08:11:17;16.40;;;9.97;;
51800;SDS011;37855;53.204;6.568;2023-06-19T08:13:42;15.45;;;8.45;;
51800;SDS011;37855;53.204;6.568;2023-06-19T08:16:08;17.90;;;8.85;;
51800;SDS011;37855;53.204;6.568;2023-06-19T08:18:35;14.13;;;8.82;;
51800;SDS011;37855;53.204;6.568;2023-06-19T08:21:01;14.70;;;7.83;;
51800;SDS011;37855;53.204;6.568;2023-06-19T08:23:27;15.95;;;7.35;;
51800;SDS011;37855;53.204;6.568;2023-06-19T08:25:53;12.23;;;6.70;;
51800;SDS011;37855;53.204;6.568;2023-06-19T08:28:19;14.23;;;6.70;;
51800;SDS011;37855;53.204;6.568;2023-06-19T08:30:45;23.63;;;7.60;;
51800;SDS011;37855;53.204;6.568;2023-06-19T08:33:11;24.57;;;7.00;;
51800;SDS011;37855;53.204;6.568;2023-06-19T08:35:38;24.40;;;6.85;;
51800;SDS011;37855;53.204;6.568;2023-06-19T08:38:04;18.50;;;6.60;;
51800;SDS011;37855;53.204;6.568;2023-06-19T08:40:29;15.07;;;6.73;;
51800;SDS011;37855;53.204;6.568;2023-06-19T08:42:55;16.73;;;6.90;;
51800;SDS011;37855;53.204;6.568;2023-06-19T08:45:25;12.02;;;6.47;;
51800;SDS011;37855;53.204;6.568;2023-06-19T08:47:59;10.52;;;6.10;;
51800;SDS011;37855;53.204;6.568;2023-06-19T08:50:33;12.83;;;5.57;;
51800;SDS011;37855;53.204;6.568;2023-06-19T08:52:59;11.60;;;6.20;;
51800;SDS011;37855;53.204;6.568;2023-06-19T08:55:25;12.80;;;5.95;;
51800;SDS011;37855;53.204;6.568;2023-06-19T08:57:51;11.27;;;5.82;;
51800;SDS011;37855;53.204;6.568;2023-06-19T09:00:28;13.80;;;5.93;;
51800;SDS011;37855;53.204;6.568;2023-06-19T09:03:01;15.50;;;5.30;;
51800;SDS011;37855;53.204;6.568;2023-06-19T09:05:27;8.38;;;5.10;;
51800;SDS011;37855;53.204;6.568;2023-06-19T09:07:54;12.07;;;5.22;;
51800;SDS011;37855;53.204;6.568;2023-06-19T09:10:25;20.27;;;5.90;;
51800;SDS011;37855;53.204;6.568;2023-06-19T09:13:01;13.73;;;5.20;;
51800;SDS011;37855;53.204;6.568;2023-06-19T09:15:30;9.35;;;5.10;;
51800;SDS011;37855;53.204;6.568;2023-06-19T09:18:02;11.35;;;4.95;;
51800;SDS011;37855;53.204;6.568;2023-06-19T09:20:28;9.90;;;4.75;;
51800;SDS011;37855;53.204;6.568;2023-06-19T09:22:55;12.97;;;4.60;;
51800;SDS011;37855;53.204;6.568;2023-06-19T09:25:21;8.23;;;3.80;;
51800;SDS011;37855;53.204;6.568;2023-06-19T09:27:48;10.48;;;4.25;;
51800;SDS011;37855;53.204;6.568;2023-06-19T09:30:17;8.35;;;4.00;;
51800;SDS011;37855;53.204;6.568;2023-06-19T09:32:43;11.50;;;4.18;;
51800;SDS011;37855;53.204;6.568;2023-06-19T09:35:08;8.80;;;4.20;;
51800;SDS011;37855;53.204;6.568;2023-06-19T09:37:34;18.13;;;4.10;;
51800;SDS011;37855;53.204;6.568;2023-06-19T09:40:03;8.53;;;4.73;;
51800;SDS011;37855;53.204;6.568;2023-06-19T09:42:37;8.02;;;4.30;;
51800;SDS011;37855;53.204;6.568;2023-06-19T09:45:05;12.15;;;4.10;;
51800;SDS011;37855;53.204;6.568;2023-06-19T09:47:42;8.55;;;4.22;;
51800;SDS011;37855;53.204;6.568;2023-06-19T09:50:10;10.50;;;4.28;;
51800;SDS011;37855;53.204;6.568;2023-06-19T09:52:39;12.23;;;4.83;;
51800;SDS011;37855;53.204;6.568;2023-06-19T09:55:16;9.15;;;4.97;;
51800;SDS011;37855;53.204;6.568;2023-06-19T09:57:45;8.73;;;5.35;;
51800;SDS011;37855;53.204;6.568;2023-06-19T10:00:13;12.93;;;6.22;;
51800;SDS011;37855;53.204;6.568;2023-06-19T10:02:46;13.60;;;5.43;;
51800;SDS011;37855;53.204;6.568;2023-06-19T10:05:14;10.03;;;6.00;;
51800;SDS011;37855;53.204;6.568;2023-06-19T10:07:50;15.38;;;7.07;;
51800;SDS011;37855;53.204;6.568;2023-06-19T10:10:23;10.65;;;6.47;;
51800;SDS011;37855;53.204;6.568;2023-06-19T10:12:57;10.80;;;6.20;;
51800;SDS011;37855;53.204;6.568;2023-06-19T10:15:27;11.38;;;6.68;;
51800;SDS011;37855;53.204;6.568;2023-06-19T10:18:04;10.75;;;6.53;;
51800;SDS011;37855;53.204;6.568;2023-06-19T10:20:31;11.25;;;5.70;;
51800;SDS011;37855;53.204;6.568;2023-06-19T10:23:00;12.32;;;6.45;;
51800;SDS011;37855;53.204;6.568;2023-06-19T10:25:33;12.93;;;6.90;;
51800;SDS011;37855;53.204;6.568;2023-06-19T10:28:02;12.02;;;6.55;;
51800;SDS011;37855;53.204;6.568;2023-06-19T10:31:01;11.27;;;7.30;;
51800;SDS011;37855;53.204;6.568;2023-06-19T10:33:29;12.75;;;6.82;;
51800;SDS011;37855;53.204;6.568;2023-06-19T10:36:00;10.77;;;7.13;;
51800;SDS011;37855;53.204;6.568;2023-06-19T10:38:26;11.47;;;5.53;;
51800;SDS011;37855;53.204;6.568;2023-06-19T10:40:56;16.83;;;7.82;;
51800;SDS011;37855;53.204;6.568;2023-06-19T10:43:22;15.00;;;7.10;;
51800;SDS011;37855;53.204;6.568;2023-06-19T10:45:50;14.73;;;7.87;;
51800;SDS011;37855;53.204;6.568;2023-06-19T10:48:18;13.40;;;7.93;;
51800;SDS011;37855;53.204;6.568;2023-06-19T10:50:45;13.77;;;7.80;;
51800;SDS011;37855;53.204;6.568;2023-06-19T10:53:12;17.00;;;8.75;;
51800;SDS011;37855;53.204;6.568;2023-06-19T10:56:08;12.20;;;6.18;;
51800;SDS011;37855;53.204;6.568;2023-06-19T10:58:34;10.87;;;7.27;;
51800;SDS011;37855;53.204;6.568;2023-06-19T11:01:00;12.52;;;7.53;;
51800;SDS011;37855;53.204;6.568;2023-06-19T11:03:25;11.83;;;7.30;;
51800;SDS011;37855;53.204;6.568;2023-06-19T11:05:51;10.02;;;7.07;;
51800;SDS011;37855;53.204;6.568;2023-06-19T11:08:26;14.63;;;9.27;;
51800;SDS011;37855;53.204;6.568;2023-06-19T11:10:52;12.03;;;7.10;;
51800;SDS011;37855;53.204;6.568;2023-06-19T11:13:20;14.82;;;7.72;;
51800;SDS011;37855;53.204;6.568;2023-06-19T11:15:47;19.83;;;8.32;;
51800;SDS011;37855;53.204;6.568;2023-06-19T11:18:19;14.75;;;7.50;;
51800;SDS011;37855;53.204;6.568;2023-06-19T11:20:46;14.23;;;8.43;;
51800;SDS011;37855;53.204;6.568;2023-06-19T11:23:16;16.05;;;8.77;;
51800;SDS011;37855;53.204;6.568;2023-06-19T11:25:52;13.20;;;8.15;;
51800;SDS011;37855;53.204;6.568;2023-06-19T11:28:17;12.17;;;7.80;;
51800;SDS011;37855;53.204;6.568;2023-06-19T11:30:47;13.98;;;7.78;;
51800;SDS011;37855;53.204;6.568;2023-06-19T11:33:22;14.43;;;7.10;;
51800;SDS011;37855;53.204;6.568;2023-06-19T11:35:52;16.63;;;6.97;;
51800;SDS011;37855;53.204;6.568;2023-06-19T11:38:20;17.17;;;9.00;;
51800;SDS011;37855;53.204;6.568;2023-06-19T11:40:46;12.63;;;7.45;;
51800;SDS011;37855;53.204;6.568;2023-06-19T11:43:23;15.18;;;7.70;;
51800;SDS011;37855;53.204;6.568;2023-06-19T11:45:52;14.27;;;8.43;;
51800;SDS011;37855;53.204;6.568;2023-06-19T11:48:22;14.40;;;7.00;;
51800;SDS011;37855;53.204;6.568;2023-06-19T11:50:51;16.20;;;8.17;;
51800;SDS011;37855;53.204;6.568;2023-06-19T11:53:19;15.65;;;7.97;;
51800;SDS011;37855;53.204;6.568;2023-06-19T11:55:46;16.73;;;8.10;;
51800;SDS011;37855;53.204;6.568;2023-06-19T11:58:12;14.90;;;7.80;;
51800;SDS011;37855;53.204;6.568;2023-06-19T12:00:37;15.80;;;7.87;;
51800;SDS011;37855;53.204;6.568;2023-06-19T12:03:03;15.50;;;8.73;;
51800;SDS011;37855;53.204;6.568;2023-06-19T12:05:29;17.93;;;7.63;;
51800;SDS011;37855;53.204;6.568;2023-06-19T12:07:55;17.15;;;8.90;;
51800;SDS011;37855;53.204;6.568;2023-06-19T12:10:24;13.57;;;8.57;;
51800;SDS011;37855;53.204;6.568;2023-06-19T12:12:50;22.03;;;9.93;;
51800;SDS011;37855;53.204;6.568;2023-06-19T12:15:16;14.35;;;8.77;;
51800;SDS011;37855;53.204;6.568;2023-06-19T12:17:42;20.95;;;8.80;;
51800;SDS011;37855;53.204;6.568;2023-06-19T12:20:17;17.33;;;8.67;;
51800;SDS011;37855;53.204;6.568;2023-06-19T12:22:45;15.02;;;7.90;;
51800;SDS011;37855;53.204;6.568;2023-06-19T12:25:11;14.75;;;8.50;;
51800;SDS011;37855;53.204;6.568;2023-06-19T12:27:40;13.90;;;7.20;;
51800;SDS011;37855;53.204;6.568;2023-06-19T12:30:06;16.10;;;8.85;;
51800;SDS011;37855;53.204;6.568;2023-06-19T12:32:33;18.60;;;8.15;;
51800;SDS011;37855;53.204;6.568;2023-06-19T12:34:59;16.53;;;8.57;;
51800;SDS011;37855;53.204;6.568;2023-06-19T12:37:24;16.63;;;7.18;;
51800;SDS011;37855;53.204;6.568;2023-06-19T12:39:50;17.47;;;7.37;;
51800;SDS011;37855;53.204;6.568;2023-06-19T12:42:16;15.97;;;8.10;;
51800;SDS011;37855;53.204;6.568;2023-06-19T12:44:42;11.75;;;7.63;;
51800;SDS011;37855;53.204;6.568;2023-06-19T12:47:11;17.05;;;8.40;;
51800;SDS011;37855;53.204;6.568;2023-06-19T12:49:37;13.75;;;8.23;;
51800;SDS011;37855;53.204;6.568;2023-06-19T12:52:02;17.20;;;8.60;;
51800;SDS011;37855;53.204;6.568;2023-06-19T12:54:28;12.07;;;7.10;;
51800;SDS011;37855;53.204;6.568;2023-06-19T12:56:54;15.03;;;8.17;;
51800;SDS011;37855;53.204;6.568;2023-06-19T12:59:21;14.73;;;8.63;;
51800;SDS011;37855;53.204;6.568;2023-06-19T13:01:47;12.95;;;7.55;;
51800;SDS011;37855;53.204;6.568;2023-06-19T13:04:13;12.77;;;7.50;;
51800;SDS011;37855;53.204;6.568;2023-06-19T13:06:38;18.85;;;8.15;;
51800;SDS011;37855;53.204;6.568;2023-06-19T13:09:04;16.83;;;8.27;;
51800;SDS011;37855;53.204;6.568;2023-06-19T13:11:31;16.40;;;8.05;;
51800;SDS011;37855;53.204;6.568;2023-06-19T13:13:59;134.00;;;13.48;;
51800;SDS011;37855;53.204;6.568;2023-06-19T13:16:25;19.80;;;8.13;;
51800;SDS011;37855;53.204;6.568;2023-06-19T13:18:54;15.50;;;7.80;;
51800;SDS011;37855;53.204;6.568;2023-06-19T13:33:24;15.35;;;7.22;;
51800;SDS011;37855;53.204;6.568;2023-06-19T13:38:44;17.88;;;6.30;;
51800;SDS011;37855;53.204;6.568;2023-06-19T13:41:13;22.58;;;7.18;;
51800;SDS011;37855;53.204;6.568;2023-06-19T13:43:38;12.50;;;6.27;;
51800;SDS011;37855;53.204;6.568;2023-06-19T13:46:06;21.85;;;7.43;;
51800;SDS011;37855;53.204;6.568;2023-06-19T13:48:32;14.70;;;7.18;;
51800;SDS011;37855;53.204;6.568;2023-06-19T13:50:58;14.23;;;6.13;;
51800;SDS011;37855;53.204;6.568;2023-06-19T13:53:25;12.02;;;6.00;;
51800;SDS011;37855;53.204;6.568;2023-06-19T13:55:53;12.77;;;6.30;;
51800;SDS011;37855;53.204;6.568;2023-06-19T13:58:20;14.43;;;6.45;;
51800;SDS011;37855;53.204;6.568;2023-06-19T14:00:46;13.38;;;7.00;;
51800;SDS011;37855;53.204;6.568;2023-06-19T14:03:12;11.10;;;7.37;;
51800;SDS011;37855;53.204;6.568;2023-06-19T14:05:38;9.80;;;6.15;;
51800;SDS011;37855;53.204;6.568;2023-06-19T14:08:07;10.95;;;5.85;;
51800;SDS011;37855;53.204;6.568;2023-06-19T14:10:34;10.80;;;6.15;;
51800;SDS011;37855;53.204;6.568;2023-06-19T14:13:00;10.25;;;5.55;;
51800;SDS011;37855;53.204;6.568;2023-06-19T14:15:27;12.67;;;5.90;;
51800;SDS011;37855;53.204;6.568;2023-06-19T14:17:53;9.40;;;6.15;;
51800;SDS011;37855;53.204;6.568;2023-06-19T14:20:18;12.43;;;5.80;;
51800;SDS011;37855;53.204;6.568;2023-06-19T14:22:44;12.35;;;5.78;;
51800;SDS011;37855;53.204;6.568;2023-06-19T14:25:11;10.60;;;5.93;;
51800;SDS011;37855;53.204;6.568;2023-06-19T14:27:37;12.70;;;5.80;;
51800;SDS011;37855;53.204;6.568;2023-06-19T14:30:04;14.60;;;6.13;;
51800;SDS011;37855;53.204;6.568;2023-06-19T14:32:33;11.15;;;6.10;;
51800;SDS011;37855;53.204;6.568;2023-06-19T14:35:03;11.60;;;7.10;;
51800;SDS011;37855;53.204;6.568;2023-06-19T14:40:32;10.77;;;6.18;;
51800;SDS011;37855;53.204;6.568;2023-06-19T14:42:57;10.53;;;5.80;;
51800;SDS011;37855;53.204;6.568;2023-06-19T14:45:23;12.90;;;6.45;;
51800;SDS011;37855;53.204;6.568;2023-06-19T14:47:49;12.57;;;6.33;;
51800;SDS011;37855;53.204;6.568;2023-06-19T14:50:15;12.07;;;6.53;;
51800;SDS011;37855;53.204;6.568;2023-06-19T14:52:40;10.23;;;6.03;;
51800;SDS011;37855;53.204;6.568;2023-06-19T14:55:06;10.63;;;6.20;;
51800;SDS011;37855;53.204;6.568;2023-06-19T14:57:32;14.30;;;6.50;;
51800;SDS011;37855;53.204;6.568;2023-06-19T14:59:58;12.97;;;5.80;;
51800;SDS011;37855;53.204;6.568;2023-06-19T15:02:23;13.75;;;5.30;;